createdAt,value
2018-11-06T00:00:20.936Z,19.27
2018-11-06T00:02:54.343Z,19.80
2018-11-06T00:05:23.704Z,18.33
2018-11-06T00:07:52.966Z,20.27
2018-11-06T00:10:22.481Z,20.93
2018-11-06T00:12:51.853Z,20.93
2018-11-06T00:15:21.458Z,20.60
2018-11-06T00:17:50.917Z,20.40
2018-11-06T00:20:20.270Z,21.93
2018-11-06T00:22:49.728Z,23.10
2018-11-06T00:25:19.149Z,22.63
2018-11-06T00:27:48.669Z,23.53
2018-11-06T00:30:17.890Z,23.53
2018-11-06T00:32:47.375Z,23.53
2018-11-06T00:35:16.799Z,24.20
2018-11-06T00:37:46.429Z,24.10
2018-11-06T00:40:16.037Z,24.63
2018-11-06T00:42:45.566Z,25.17
2018-11-06T00:45:15.914Z,25.37
2018-11-06T00:47:45.397Z,25.30
2018-11-06T00:50:15.213Z,24.80
2018-11-06T00:52:45.189Z,24.97
2018-11-06T00:55:14.777Z,24.60
2018-11-06T00:57:44.807Z,24.53
2018-11-06T01:00:17.805Z,25.03
2018-11-06T01:02:47.559Z,26.47
2018-11-06T01:05:17.947Z,25.37
2018-11-06T01:07:48.621Z,24.67
2018-11-06T01:10:18.095Z,26.57
2018-11-06T01:12:47.454Z,26.30
2018-11-06T01:15:17.367Z,28.20
2018-11-06T01:17:47.402Z,26.97
2018-11-06T01:20:18.161Z,28.87
2018-11-06T01:22:47.755Z,28.70
2018-11-06T01:25:17.207Z,28.40
2018-11-06T01:27:46.751Z,28.37
2018-11-06T01:30:18.291Z,28.70
2018-11-06T01:32:48.041Z,28.60
2018-11-06T01:35:17.948Z,28.27
2018-11-06T01:37:47.599Z,28.77
2018-11-06T01:40:18.376Z,31.50
2018-11-06T01:42:48.302Z,30.57
2018-11-06T01:45:18.258Z,30.57
2018-11-06T01:47:47.765Z,30.17
2018-11-06T01:50:18.104Z,31.03
2018-11-06T01:52:48.109Z,31.10
2018-11-06T01:55:17.663Z,31.57
2018-11-06T01:57:47.022Z,30.63
2018-11-06T02:00:18.910Z,31.60
2018-11-06T02:02:48.553Z,30.60
2018-11-06T02:05:18.683Z,30.77
2018-11-06T02:07:49.400Z,30.10
2018-11-06T02:10:19.161Z,30.37
2018-11-06T02:12:48.723Z,29.77
2018-11-06T02:15:18.125Z,32.80
2018-11-06T02:17:47.486Z,29.77
2018-11-06T02:20:17.130Z,30.27
2018-11-06T02:22:47.006Z,30.60
2018-11-06T02:25:16.460Z,29.73
2018-11-06T02:27:46.046Z,29.93
2018-11-06T02:30:16.717Z,28.80
2018-11-06T02:32:46.635Z,30.03
2018-11-06T02:35:16.117Z,30.13
2018-11-06T02:37:46.020Z,30.27
2018-11-06T02:40:16.159Z,30.53
2018-11-06T02:42:45.760Z,29.23
2018-11-06T02:45:15.211Z,29.53
2018-11-06T02:47:44.885Z,30.90
2018-11-06T02:50:15.707Z,30.70
2018-11-06T02:52:45.535Z,30.73
2018-11-06T02:55:15.196Z,29.90
2018-11-06T02:57:44.993Z,29.90
2018-11-06T03:00:15.784Z,30.53
2018-11-06T03:02:45.964Z,29.60
2018-11-06T03:05:15.360Z,29.17
2018-11-06T03:07:44.839Z,30.13
2018-11-06T03:10:14.978Z,30.10
2018-11-06T03:12:44.814Z,30.20
2018-11-06T03:15:14.939Z,30.37
2018-11-06T03:17:44.377Z,30.40
2018-11-06T03:20:14.556Z,28.63
2018-11-06T03:22:44.525Z,30.63
2018-11-06T03:25:13.909Z,28.90
2018-11-06T03:27:43.450Z,28.90
2018-11-06T03:30:15.281Z,29.23
2018-11-06T03:32:45.649Z,30.07
2018-11-06T03:35:15.872Z,31.77
2018-11-06T03:37:45.624Z,28.63
2018-11-06T03:40:15.081Z,28.97
2018-11-06T03:42:44.613Z,30.00
2018-11-06T03:45:14.330Z,28.60
2018-11-06T03:47:43.755Z,30.23
2018-11-06T03:50:13.837Z,29.27
2018-11-06T03:52:43.329Z,29.97
2018-11-06T03:55:12.698Z,30.43
2018-11-06T03:57:42.237Z,28.27
2018-11-06T04:00:14.689Z,29.43
2018-11-06T04:02:44.649Z,28.47
2018-11-06T04:05:14.330Z,28.93
2018-11-06T04:07:43.691Z,29.53
2018-11-06T04:10:13.574Z,29.73
2018-11-06T04:12:43.216Z,27.77
2018-11-06T04:15:13.820Z,29.43
2018-11-06T04:17:44.249Z,28.97
2018-11-06T04:20:13.810Z,29.33
2018-11-06T04:22:43.431Z,28.63
2018-11-06T04:25:12.844Z,30.03
2018-11-06T04:27:42.198Z,30.27
2018-11-06T04:30:14.006Z,30.37
2018-11-06T04:32:44.055Z,31.07
2018-11-06T04:35:13.891Z,32.20
2018-11-06T04:37:43.461Z,31.70
2018-11-06T04:40:13.828Z,30.40
2018-11-06T04:42:43.068Z,30.17
2018-11-06T04:45:12.948Z,34.27
2018-11-06T04:47:42.565Z,32.63
2018-11-06T04:50:12.302Z,36.13
2018-11-06T04:52:42.099Z,35.90
2018-11-06T04:55:12.672Z,39.50
2018-11-06T04:57:42.336Z,40.40
2018-11-06T05:00:13.327Z,44.70
2018-11-06T05:02:43.345Z,40.87
2018-11-06T05:05:13.352Z,43.03
2018-11-06T05:07:42.901Z,43.97
2018-11-06T05:10:14.413Z,42.30
2018-11-06T05:12:44.006Z,41.43
2018-11-06T05:15:14.694Z,46.67
2018-11-06T05:17:44.301Z,43.13
2018-11-06T05:20:17.227Z,42.17
2018-11-06T05:22:47.345Z,42.77
2018-11-06T05:25:17.001Z,41.30
2018-11-06T05:27:46.309Z,42.50
2018-11-06T05:30:15.644Z,40.70
2018-11-06T05:32:45.469Z,41.90
2018-11-06T05:35:14.844Z,39.40
2018-11-06T05:37:44.512Z,40.43
2018-11-06T05:41:22.449Z,37.50
2018-11-06T05:43:51.834Z,35.40
2018-11-06T05:46:21.340Z,32.90
2018-11-06T05:48:50.865Z,36.40
2018-11-06T05:51:20.375Z,33.53
2018-11-06T05:53:49.877Z,33.40
2018-11-06T05:56:19.357Z,33.87
2018-11-06T05:58:48.804Z,34.13
2018-11-06T06:01:18.096Z,32.67
2018-11-06T06:03:49.100Z,33.30
2018-11-06T06:06:18.435Z,32.97
2018-11-06T06:08:47.849Z,33.63
2018-11-06T06:11:17.346Z,34.37
2018-11-06T06:13:46.570Z,33.27
2018-11-06T06:16:15.953Z,34.17
2018-11-06T06:18:45.353Z,33.87
2018-11-06T06:21:14.761Z,35.40
2018-11-06T06:23:44.102Z,35.53
2018-11-06T06:26:13.460Z,34.67
2018-11-06T06:28:42.765Z,37.07
2018-11-06T06:31:12.360Z,37.60
2018-11-06T06:33:41.758Z,39.33
2018-11-06T06:36:11.274Z,39.23
2018-11-06T06:38:40.830Z,38.83
2018-11-06T06:41:10.192Z,38.27
2018-11-06T06:43:39.752Z,36.60
2018-11-06T06:46:09.216Z,37.90
2018-11-06T06:48:38.701Z,36.93
2018-11-06T06:51:08.260Z,37.73
2018-11-06T06:53:37.707Z,35.70
2018-11-06T06:56:07.379Z,33.60
2018-11-06T06:58:36.848Z,32.73
2018-11-06T07:01:06.448Z,33.23
2018-11-06T07:03:35.886Z,33.80
2018-11-06T07:06:05.447Z,32.33
2018-11-06T07:08:34.966Z,33.57
2018-11-06T07:11:04.326Z,33.03
2018-11-06T07:13:33.812Z,33.50
2018-11-06T07:16:03.173Z,30.47
2018-11-06T07:18:32.537Z,31.70
2018-11-06T07:21:01.768Z,31.43
2018-11-06T07:23:31.307Z,32.20
2018-11-06T07:26:00.417Z,30.20
2018-11-06T07:28:29.867Z,29.90
2018-11-06T07:30:59.565Z,30.23
2018-11-06T07:33:29.002Z,32.23
2018-11-06T07:35:58.541Z,28.67
2018-11-06T07:38:27.766Z,26.37
2018-11-06T07:40:57.095Z,27.53
2018-11-06T07:43:26.417Z,27.07
2018-11-06T07:45:55.711Z,27.00
2018-11-06T07:48:25.119Z,25.77
2018-11-06T07:50:54.579Z,26.40
2018-11-06T07:53:24.161Z,27.43
2018-11-06T07:55:53.904Z,25.90
2018-11-06T07:58:23.111Z,26.90
2018-11-06T08:00:52.499Z,25.77
2018-11-06T08:03:22.028Z,25.07
2018-11-06T08:05:51.450Z,23.30
2018-11-06T08:08:20.858Z,24.83
2018-11-06T08:10:50.258Z,24.33
2018-11-06T08:13:19.765Z,23.57
2018-11-06T08:15:49.322Z,23.30
2018-11-06T08:18:18.736Z,21.80
2018-11-06T08:20:48.110Z,23.30
2018-11-06T08:23:17.323Z,23.10
2018-11-06T08:25:46.737Z,22.50
2018-11-06T08:28:16.136Z,24.43
2018-11-06T08:30:45.662Z,23.20
2018-11-06T08:33:14.893Z,25.03
2018-11-06T08:35:44.395Z,23.93
2018-11-06T08:38:14.024Z,23.57
2018-11-06T08:40:43.497Z,25.23
2018-11-06T08:43:13.066Z,23.60
2018-11-06T08:45:42.514Z,24.63
2018-11-06T08:48:11.987Z,24.47
2018-11-06T08:50:41.433Z,22.40
2018-11-06T08:53:10.817Z,21.30
2018-11-06T08:55:40.494Z,19.13
2018-11-06T08:58:09.951Z,18.40
2018-11-06T09:00:39.494Z,18.03
2018-11-06T09:03:09.001Z,18.67
2018-11-06T09:05:38.447Z,16.73
2018-11-06T09:08:08.013Z,17.13
2018-11-06T09:10:37.415Z,16.47
2018-11-06T09:13:06.788Z,16.07
2018-11-06T09:15:36.224Z,17.23
2018-11-06T09:18:05.663Z,15.67
2018-11-06T09:20:35.078Z,15.80
2018-11-06T09:23:04.443Z,16.43
2018-11-06T09:25:34.393Z,15.60
2018-11-06T09:28:03.716Z,15.43
2018-11-06T09:30:33.015Z,15.30
2018-11-06T09:33:02.321Z,16.70
2018-11-06T09:35:31.861Z,16.93
2018-11-06T09:38:01.374Z,16.70
2018-11-06T09:42:59.966Z,16.00
2018-11-06T09:45:29.482Z,17.03
2018-11-06T09:47:59.204Z,18.77
2018-11-06T09:50:28.540Z,19.40
2018-11-06T09:52:57.840Z,17.77
2018-11-06T09:55:27.423Z,17.47
2018-11-06T09:57:56.949Z,19.33
2018-11-06T10:00:26.898Z,22.83
2018-11-06T10:02:56.426Z,20.10
2018-11-06T10:05:25.884Z,20.77
2018-11-06T10:07:55.336Z,22.37
2018-11-06T10:10:24.640Z,22.73
2018-11-06T10:12:54.167Z,22.10
2018-11-06T10:15:23.543Z,24.13
2018-11-06T10:17:52.916Z,23.17
2018-11-06T10:20:22.363Z,24.23
2018-11-06T10:22:51.793Z,22.50
2018-11-06T10:25:21.313Z,20.67
2018-11-06T10:27:50.736Z,20.87
2018-11-06T10:30:20.595Z,20.50
2018-11-06T10:32:50.000Z,21.03
2018-11-06T10:35:19.460Z,20.77
2018-11-06T10:37:48.853Z,19.53
2018-11-06T10:40:20.014Z,19.73
2018-11-06T10:42:49.491Z,19.70
2018-11-06T10:45:19.337Z,17.30
2018-11-06T10:47:49.179Z,17.60
2018-11-06T10:50:19.208Z,15.40
2018-11-06T10:52:49.115Z,15.23
2018-11-06T10:55:18.556Z,14.30
2018-11-06T10:57:48.130Z,15.67
2018-11-06T11:00:22.330Z,14.93
2018-11-06T11:02:56.730Z,14.43
2018-11-06T11:05:27.778Z,15.87
2018-11-06T11:07:57.219Z,15.17
2018-11-06T11:10:26.572Z,15.93
2018-11-06T11:12:56.187Z,15.57
2018-11-06T11:15:25.719Z,15.87
2018-11-06T11:17:55.104Z,15.73
2018-11-06T11:20:24.497Z,15.60
2018-11-06T11:22:54.071Z,15.13
2018-11-06T11:25:23.458Z,16.47
2018-11-06T11:27:52.851Z,16.07
2018-11-06T11:30:22.391Z,16.30
2018-11-06T11:32:51.958Z,15.50
2018-11-06T11:35:21.462Z,16.63
2018-11-06T11:37:50.935Z,16.00
2018-11-06T11:40:20.226Z,16.37
2018-11-06T11:42:49.530Z,16.67
2018-11-06T11:45:19.002Z,17.33
2018-11-06T11:47:48.408Z,15.03
2018-11-06T11:50:17.924Z,16.00
2018-11-06T11:52:47.461Z,16.13
2018-11-06T11:55:17.002Z,16.10
2018-11-06T11:57:46.452Z,14.60
2018-11-06T12:00:17.526Z,16.60
2018-11-06T12:02:47.028Z,15.20
2018-11-06T12:05:16.435Z,15.33
2018-11-06T12:07:45.908Z,14.53
2018-11-06T12:10:16.285Z,14.87
2018-11-06T12:12:47.598Z,14.00
2018-11-06T12:15:17.923Z,12.67
2018-11-06T12:17:47.810Z,13.33
2018-11-06T12:20:17.554Z,14.43
2018-11-06T12:22:47.137Z,13.93
2018-11-06T12:25:16.830Z,13.27
2018-11-06T12:27:46.162Z,13.33
2018-11-06T12:30:16.900Z,12.53
2018-11-06T12:32:46.344Z,11.47
2018-11-06T12:35:16.032Z,10.80
2018-11-06T12:37:45.513Z,9.97
2018-11-06T12:40:15.284Z,8.93
2018-11-06T12:42:44.840Z,9.20
2018-11-06T12:45:15.425Z,8.97
2018-11-06T12:47:45.251Z,8.13
2018-11-06T12:50:14.650Z,8.43
2018-11-06T12:52:44.103Z,6.37
2018-11-06T12:55:14.561Z,6.20
2018-11-06T12:57:44.040Z,5.93
2018-11-06T13:00:17.201Z,6.57
2018-11-06T13:02:46.651Z,6.30
2018-11-06T13:05:16.104Z,6.43
2018-11-06T13:07:45.905Z,5.13
2018-11-06T13:10:15.689Z,5.33
2018-11-06T13:12:45.349Z,4.83
2018-11-06T13:15:15.640Z,4.60
2018-11-06T13:17:44.206Z,4.83
2018-11-06T13:20:14.685Z,5.10
2018-11-06T13:22:44.726Z,5.03
2018-11-06T13:25:14.109Z,4.33
2018-11-06T13:27:43.675Z,4.00
2018-11-06T13:30:15.523Z,3.87
2018-11-06T13:32:45.870Z,3.83
2018-11-06T13:35:15.445Z,4.20
2018-11-06T13:37:44.768Z,3.93
2018-11-06T13:40:15.300Z,3.90
2018-11-06T13:42:44.920Z,4.57
2018-11-06T13:45:16.145Z,4.37
2018-11-06T13:47:45.396Z,4.37
2018-11-06T13:50:14.911Z,4.90
2018-11-06T13:52:44.415Z,4.53
2018-11-06T13:55:14.838Z,5.07
2018-11-06T13:57:45.015Z,4.30
2018-11-06T14:00:16.459Z,4.37
2018-11-06T14:02:45.885Z,5.43
2018-11-06T14:05:15.577Z,4.50
2018-11-06T14:07:45.239Z,4.73
2018-11-06T14:10:14.602Z,3.83
2018-11-06T14:12:44.852Z,4.03
2018-11-06T14:15:14.397Z,4.13
2018-11-06T14:17:43.869Z,4.07
2018-11-06T14:20:14.848Z,4.03
2018-11-06T14:22:44.480Z,4.07
2018-11-06T14:25:13.924Z,4.97
2018-11-06T14:27:43.561Z,4.40
2018-11-06T14:30:16.054Z,5.20
2018-11-06T14:32:45.842Z,4.77
2018-11-06T14:35:16.203Z,4.50
2018-11-06T14:37:46.269Z,4.70
2018-11-06T14:40:16.241Z,4.60
2018-11-06T14:42:45.967Z,4.13
2018-11-06T14:45:16.785Z,4.37
2018-11-06T14:47:46.216Z,4.67
2018-11-06T14:50:15.693Z,4.40
2018-11-06T14:52:44.959Z,4.70
2018-11-06T14:55:15.309Z,4.27
2018-11-06T14:57:44.815Z,5.40
2018-11-06T15:00:15.855Z,5.20
2018-11-06T15:02:46.655Z,5.50
2018-11-06T15:05:16.464Z,5.27
2018-11-06T15:07:46.180Z,5.93
2018-11-06T15:10:15.585Z,5.77
2018-11-06T15:12:45.410Z,6.30
2018-11-06T15:15:15.339Z,5.93
2018-11-06T15:17:45.752Z,6.27
2018-11-06T15:20:22.247Z,5.77
2018-11-06T15:22:51.813Z,4.80
2018-11-06T15:25:21.276Z,5.80
2018-11-06T15:27:50.538Z,5.90
2018-11-06T15:30:20.231Z,5.87
2018-11-06T15:32:49.634Z,6.17
2018-11-06T15:35:20.370Z,5.87
2018-11-06T15:37:49.825Z,5.87
2018-11-06T15:40:20.311Z,6.30
2018-11-06T15:42:49.610Z,6.87
2018-11-06T15:45:19.793Z,7.23
2018-11-06T15:47:49.371Z,7.50
2018-11-06T15:50:19.776Z,7.67
2018-11-06T15:52:50.109Z,7.60
2018-11-06T15:55:19.618Z,7.40
2018-11-06T15:57:49.095Z,7.60
2018-11-06T16:00:20.583Z,7.57
2018-11-06T16:02:50.066Z,8.93
2018-11-06T16:05:19.587Z,7.80
2018-11-06T16:07:49.425Z,8.30
2018-11-06T16:10:20.025Z,7.83
2018-11-06T16:12:49.607Z,6.97
2018-11-06T16:15:19.257Z,7.97
2018-11-06T16:17:48.914Z,7.90
2018-11-06T16:20:19.452Z,7.70
2018-11-06T16:22:48.904Z,8.63
2018-11-06T16:25:19.209Z,9.10
2018-11-06T16:27:48.893Z,9.03
2018-11-06T16:30:20.303Z,9.83
2018-11-06T16:32:50.661Z,11.10
2018-11-06T16:35:21.478Z,10.90
2018-11-06T16:37:50.905Z,9.43
2018-11-06T16:40:20.279Z,11.10
2018-11-06T16:42:49.733Z,11.90
2018-11-06T16:45:20.576Z,11.23
2018-11-06T16:47:50.485Z,11.90
2018-11-06T16:50:19.937Z,11.67
2018-11-06T16:52:50.332Z,12.17
2018-11-06T16:55:19.945Z,12.13
2018-11-06T16:57:49.526Z,11.27
2018-11-06T17:00:20.879Z,12.07
2018-11-06T17:02:50.057Z,11.20
2018-11-06T17:05:19.493Z,10.53
2018-11-06T17:07:49.231Z,12.10
2018-11-06T17:10:18.970Z,12.13
2018-11-06T17:12:48.148Z,11.70
2018-11-06T17:15:23.754Z,10.27
2018-11-06T17:17:53.888Z,10.43
2018-11-06T17:20:23.351Z,10.47
2018-11-06T17:22:52.416Z,10.20
2018-11-06T17:25:22.424Z,9.23
2018-11-06T17:27:51.851Z,10.00
2018-11-06T17:30:21.413Z,9.53
2018-11-06T17:32:50.796Z,9.60
2018-11-06T17:35:21.660Z,9.57
2018-11-06T17:37:50.801Z,9.23
2018-11-06T17:40:21.133Z,9.07
2018-11-06T17:42:50.670Z,9.17
2018-11-06T17:45:21.575Z,8.07
2018-11-06T17:47:50.980Z,7.93
2018-11-06T17:50:20.405Z,8.40
2018-11-06T17:52:49.448Z,8.30
2018-11-06T17:55:19.839Z,8.23
2018-11-06T17:57:48.985Z,7.47
2018-11-06T18:00:21.239Z,7.83
2018-11-06T18:02:50.636Z,7.90
2018-11-06T18:05:21.075Z,7.60
2018-11-06T18:07:50.130Z,7.73
2018-11-06T18:10:20.170Z,6.97
2018-11-06T18:12:49.254Z,7.10
2018-11-06T18:15:18.390Z,7.50
2018-11-06T18:17:47.651Z,8.27
2018-11-06T18:20:16.804Z,7.50
2018-11-06T18:22:46.279Z,9.03
2018-11-06T18:25:15.605Z,8.53
2018-11-06T18:27:45.112Z,9.17
2018-11-06T18:30:16.421Z,8.00
2018-11-06T18:32:45.557Z,9.23
2018-11-06T18:35:15.638Z,8.37
2018-11-06T18:37:45.204Z,7.97
2018-11-06T18:40:17.664Z,7.73
2018-11-06T18:42:47.774Z,7.97
2018-11-06T18:45:17.522Z,7.60
2018-11-06T18:47:46.872Z,9.87
2018-11-06T18:50:17.156Z,8.10
2018-11-06T18:52:47.838Z,7.70
2018-11-06T18:55:16.961Z,8.23
2018-11-06T18:57:46.126Z,8.20
2018-11-06T19:00:17.500Z,7.73
2018-11-06T19:02:47.804Z,7.03
2018-11-06T19:05:17.445Z,7.13
2018-11-06T19:07:46.834Z,7.63
2018-11-06T19:10:16.494Z,7.53
2018-11-06T19:12:45.965Z,10.43
2018-11-06T19:15:17.370Z,7.50
2018-11-06T19:17:47.012Z,7.07
2018-11-06T19:20:16.422Z,7.27
2018-11-06T19:22:46.105Z,7.03
2018-11-06T19:25:15.819Z,7.20
2018-11-06T19:27:45.399Z,6.77
2018-11-06T19:30:16.575Z,6.20
2018-11-06T19:32:46.146Z,6.20
2018-11-06T19:35:15.125Z,6.27
2018-11-06T19:37:44.372Z,5.90
2018-11-06T19:40:15.092Z,5.97
2018-11-06T19:42:45.299Z,5.17
2018-11-06T19:45:14.876Z,6.50
2018-11-06T19:47:44.532Z,5.57
2018-11-06T19:50:15.103Z,6.47
2018-11-06T19:52:44.514Z,6.20
2018-11-06T19:55:14.944Z,6.03
2018-11-06T19:57:44.438Z,6.10
2018-11-06T20:00:21.235Z,5.80
2018-11-06T20:02:51.223Z,6.23
2018-11-06T20:05:20.992Z,6.33
2018-11-06T20:07:51.137Z,5.73
2018-11-06T20:10:21.642Z,5.93
2018-11-06T20:12:52.139Z,5.73
2018-11-06T20:15:21.156Z,6.53
2018-11-06T20:17:50.624Z,6.33
2018-11-06T20:20:23.311Z,6.40
2018-11-06T20:22:52.608Z,6.10
2018-11-06T20:25:21.980Z,6.13
2018-11-06T20:27:52.131Z,6.13
2018-11-06T20:30:23.877Z,6.90
2018-11-06T20:32:53.232Z,6.77
2018-11-06T20:35:22.790Z,6.07
2018-11-06T20:37:52.228Z,6.03
2018-11-06T20:40:22.900Z,6.93
2018-11-06T20:42:52.379Z,6.23
2018-11-06T20:45:22.190Z,6.07
2018-11-06T20:47:51.487Z,6.43
2018-11-06T20:50:22.307Z,5.60
2018-11-06T20:52:51.783Z,6.23
2018-11-06T20:55:21.426Z,5.97
2018-11-06T20:57:50.809Z,6.00
2018-11-06T21:00:29.131Z,5.63
2018-11-06T21:03:00.740Z,5.50
2018-11-06T21:05:30.161Z,5.77
2018-11-06T21:07:59.493Z,5.23
2018-11-06T21:10:30.528Z,5.47
2018-11-06T21:13:00.102Z,5.30
2018-11-06T21:15:29.343Z,4.67
2018-11-06T21:17:59.002Z,5.57
2018-11-06T21:20:28.355Z,4.80
2018-11-06T21:22:57.661Z,5.10
2018-11-06T21:25:27.824Z,5.23
2018-11-06T21:27:57.264Z,4.77
2018-11-06T21:30:26.713Z,4.37
2018-11-06T21:32:56.159Z,4.23
2018-11-06T21:35:25.400Z,5.00
2018-11-06T21:37:54.814Z,4.80
2018-11-06T21:40:24.208Z,4.77
2018-11-06T21:42:53.684Z,4.87
2018-11-06T21:45:22.973Z,4.57
2018-11-06T21:47:52.229Z,4.80
2018-11-06T21:50:21.554Z,4.60
2018-11-06T21:52:50.822Z,4.60
2018-11-06T21:55:20.516Z,4.60
2018-11-06T21:57:50.023Z,4.97
2018-11-06T22:00:20.594Z,3.90
2018-11-06T22:02:49.978Z,4.30
2018-11-06T22:05:20.467Z,5.23
2018-11-06T22:07:49.926Z,4.50
2018-11-06T22:10:20.399Z,5.00
2018-11-06T22:12:50.158Z,4.20
2018-11-06T22:15:20.163Z,4.33
2018-11-06T22:17:49.664Z,4.50
2018-11-06T22:20:19.988Z,5.20
2018-11-06T22:22:49.698Z,4.80
2018-11-06T22:25:19.238Z,4.70
2018-11-06T22:27:48.492Z,4.67
2018-11-06T22:30:18.397Z,4.70
2018-11-06T22:32:48.056Z,4.40
2018-11-06T22:35:18.438Z,4.40
2018-11-06T22:37:47.829Z,4.70
2018-11-06T22:40:17.923Z,4.87
2018-11-06T22:42:47.326Z,4.10
2018-11-06T22:45:17.573Z,3.70
2018-11-06T22:47:48.046Z,4.60
2018-11-06T22:50:18.889Z,4.17
2018-11-06T22:52:49.031Z,3.90
2018-11-06T22:55:18.452Z,4.57
2018-11-06T22:57:47.791Z,4.40
2018-11-06T23:00:19.552Z,4.23
2018-11-06T23:02:49.106Z,3.77
2018-11-06T23:05:18.345Z,3.87
2018-11-06T23:07:53.073Z,3.60
2018-11-06T23:10:22.496Z,3.77
2018-11-06T23:12:51.873Z,3.97
2018-11-06T23:15:21.308Z,4.27
2018-11-06T23:17:50.795Z,4.03
2018-11-06T23:20:20.466Z,4.13
2018-11-06T23:22:49.791Z,3.80
2018-11-06T23:25:19.226Z,4.67
2018-11-06T23:27:48.712Z,4.40
2018-11-06T23:30:18.104Z,4.17
2018-11-06T23:32:47.651Z,4.27
2018-11-06T23:35:17.161Z,4.00
2018-11-06T23:37:46.535Z,4.20
2018-11-06T23:40:16.144Z,4.77
2018-11-06T23:42:45.538Z,4.30
2018-11-06T23:45:14.879Z,4.63
2018-11-06T23:47:44.297Z,4.17
2018-11-06T23:50:13.656Z,4.50
2018-11-06T23:52:42.954Z,4.93
2018-11-06T23:55:12.476Z,4.30
2018-11-06T23:57:41.944Z,4.20
